Time;durP1;ratioP1;P1;durP2;ratioP2;P2;SDS_P1;SDS_P2;PMS_P1;PMS_P2;Temp;Humidity;BMP_temperature;BMP_pressure;BME280_temperature;BME280_humidity;BME280_pressure;Samples;Min_cycle;Max_cycle;Signal;HPM_P1;HPM_P2
2024/01/27 00:00:09;;;;;;;17.23;7.47;;;5.50;99.90;;;;;;5071716;28;20191;-87
2024/01/27 00:02:35;;;;;;;14.07;6.70;;;5.40;99.90;;;;;;5072710;28;20176;-86
2024/01/27 00:05:01;;;;;;;17.43;6.70;;;5.20;99.90;;;;;;5071654;28;20186;-85
2024/01/27 00:07:28;;;;;;;13.53;7.27;;;5.20;99.90;;;;;;5071740;28;20172;-85
2024/01/27 00:09:59;;;;;;;16.17;7.17;;;5.00;99.90;;;;;;5074641;28;20243;-85
2024/01/27 00:12:24;;;;;;;12.27;6.87;;;5.10;99.90;;;;;;5075139;28;20285;-85
2024/01/27 00:14:50;;;;;;;15.63;7.10;;;5.20;99.90;;;;;;5071643;28;20617;-85
2024/01/27 00:17:16;;;;;;;16.07;6.80;;;5.10;99.90;;;;;;5072751;28;20318;-85
2024/01/27 00:19:41;;;;;;;12.00;6.73;;;4.90;99.90;;;;;;5071627;28;20180;-85
2024/01/27 00:22:07;;;;;;;12.93;6.13;;;5.00;99.90;;;;;;5071764;28;20176;-85
2024/01/27 00:24:33;;;;;;;14.27;7.10;;;4.90;99.90;;;;;;5071814;28;20191;-84
2024/01/27 00:27:00;;;;;;;14.63;6.77;;;5.00;99.90;;;;;;5072655;28;20641;-84
2024/01/27 00:29:26;;;;;;;16.73;6.40;;;4.80;99.90;;;;;;5071420;28;20230;-84
2024/01/27 00:31:51;;;;;;;14.83;6.70;;;4.80;99.90;;;;;;5071385;28;20212;-84
2024/01/27 00:34:17;;;;;;;16.33;7.10;;;4.90;99.90;;;;;;5071366;28;20172;-85
2024/01/27 00:36:48;;;;;;;15.23;7.13;;;4.80;99.90;;;;;;5074135;28;20188;-83
2024/01/27 00:39:15;;;;;;;14.83;6.87;;;4.90;99.90;;;;;;5081782;28;20173;-83
2024/01/27 00:41:40;;;;;;;14.53;6.53;;;5.10;99.90;;;;;;5074414;28;20544;-84
2024/01/27 00:44:06;;;;;;;17.50;7.23;;;5.00;99.90;;;;;;5072152;28;20632;-84
2024/01/27 00:46:32;;;;;;;14.00;6.40;;;5.10;99.90;;;;;;5075100;28;20648;-84
2024/01/27 00:48:57;;;;;;;14.50;7.63;;;4.90;99.90;;;;;;5076278;28;20164;-85
2024/01/27 00:51:23;;;;;;;14.63;6.77;;;4.80;99.90;;;;;;5074607;28;20264;-83
2024/01/27 00:53:49;;;;;;;16.07;6.33;;;5.00;99.90;;;;;;5074960;28;20171;-85
2024/01/27 00:56:14;;;;;;;16.23;6.63;;;4.70;99.90;;;;;;5074896;28;20674;-83
2024/01/27 00:58:40;;;;;;;12.57;6.40;;;4.80;99.90;;;;;;5074504;28;20188;-85
2024/01/27 01:01:06;;;;;;;11.83;7.07;;;4.70;99.90;;;;;;5074687;28;20168;-84
2024/01/27 01:03:31;;;;;;;14.47;7.33;;;4.80;99.90;;;;;;5074767;28;20207;-84
2024/01/27 01:05:57;;;;;;;11.87;6.37;;;4.80;99.90;;;;;;5074706;28;20202;-85
2024/01/27 01:08:23;;;;;;;13.83;6.73;;;4.90;99.90;;;;;;5074685;28;20183;-84
2024/01/27 01:10:48;;;;;;;13.50;6.37;;;4.90;99.90;;;;;;5075089;28;20704;-84
2024/01/27 01:13:14;;;;;;;13.53;6.87;;;4.70;99.90;;;;;;5074704;28;20281;-85
2024/01/27 01:15:40;;;;;;;13.87;7.47;;;4.80;99.90;;;;;;5074760;28;20268;-84
2024/01/27 01:18:05;;;;;;;14.47;6.87;;;4.70;99.90;;;;;;5074714;28;20195;-84
2024/01/27 01:20:32;;;;;;;18.67;6.93;;;4.70;99.90;;;;;;5074274;28;20287;-84
2024/01/27 01:22:58;;;;;;;16.43;7.70;;;4.60;99.90;;;;;;5074782;28;20179;-84
2024/01/27 01:25:24;;;;;;;16.27;7.20;;;4.60;99.90;;;;;;5083656;28;20172;-83
2024/01/27 01:27:52;;;;;;;14.40;6.93;;;4.70;99.90;;;;;;5077745;28;20180;-84
2024/01/27 01:30:18;;;;;;;13.10;6.73;;;4.70;99.90;;;;;;5074094;28;20176;-86
2024/01/27 01:32:43;;;;;;;14.10;6.73;;;4.70;99.90;;;;;;5074190;28;20220;-86
2024/01/27 01:35:13;;;;;;;16.77;6.67;;;4.80;99.90;;;;;;5073858;28;20564;-84
2024/01/27 01:37:39;;;;;;;14.93;6.87;;;4.80;99.90;;;;;;5074140;28;20176;-85
2024/01/27 01:40:05;;;;;;;14.57;7.10;;;4.60;99.90;;;;;;5073922;28;20175;-84
2024/01/27 01:42:32;;;;;;;16.10;6.77;;;4.50;99.90;;;;;;5073979;28;20220;-84
2024/01/27 01:44:58;;;;;;;12.33;6.87;;;4.50;99.90;;;;;;5073879;28;20621;-85
2024/01/27 01:47:23;;;;;;;14.27;6.40;;;4.50;99.90;;;;;;5073668;28;20174;-85
2024/01/27 01:49:49;;;;;;;13.37;7.13;;;4.40;99.90;;;;;;5073712;28;20270;-85
2024/01/27 01:52:19;;;;;;;17.03;7.40;;;4.50;99.90;;;;;;5073932;28;20261;-85
2024/01/27 01:54:49;;;;;;;13.73;6.50;;;4.50;99.90;;;;;;5073552;28;20164;-85
2024/01/27 01:57:15;;;;;;;11.47;6.73;;;4.70;99.90;;;;;;5073725;28;20183;-84
2024/01/27 01:59:41;;;;;;;11.80;6.90;;;4.50;99.90;;;;;;5073613;28;20187;-84
2024/01/27 02:02:08;;;;;;;17.77;7.23;;;4.50;99.90;;;;;;5073762;28;20721;-85
2024/01/27 02:04:45;;;;;;;14.93;7.27;;;4.60;99.90;;;;;;5073620;28;20180;-85
2024/01/27 02:07:11;;;;;;;15.93;6.83;;;4.50;99.90;;;;;;5073832;28;20226;-85
2024/01/27 02:09:37;;;;;;;10.43;6.07;;;4.60;99.90;;;;;;5073694;28;20173;-86
2024/01/27 02:12:03;;;;;;;12.13;7.37;;;4.40;99.90;;;;;;5073559;28;20208;-85
2024/01/27 02:14:29;;;;;;;15.23;7.70;;;4.40;99.90;;;;;;5073195;28;20621;-85
2024/01/27 02:16:54;;;;;;;15.13;7.70;;;4.50;99.90;;;;;;5073634;28;20180;-86
2024/01/27 02:19:20;;;;;;;13.67;7.30;;;4.30;99.90;;;;;;5073511;28;20173;-85
2024/01/27 02:21:46;;;;;;;9.70;6.43;;;4.30;99.90;;;;;;5073274;28;20286;-85
2024/01/27 02:24:11;;;;;;;18.00;6.97;;;4.40;99.90;;;;;;5074415;28;20526;-84
2024/01/27 02:26:37;;;;;;;16.73;7.27;;;4.50;99.90;;;;;;5073365;28;20183;-85
2024/01/27 02:29:03;;;;;;;13.80;7.40;;;4.40;99.90;;;;;;5073271;28;20172;-85
2024/01/27 02:31:28;;;;;;;13.33;7.13;;;4.50;99.90;;;;;;5073103;28;20259;-86
2024/01/27 02:33:54;;;;;;;14.80;6.77;;;4.60;99.90;;;;;;5073035;28;20263;-83
2024/01/27 02:36:20;;;;;;;13.77;7.30;;;4.40;99.90;;;;;;5072935;28;20259;-84
2024/01/27 02:38:46;;;;;;;15.77;7.97;;;4.60;99.90;;;;;;5081646;28;20180;-83
2024/01/27 02:41:11;;;;;;;12.90;7.63;;;4.60;99.90;;;;;;5077413;28;20270;-85
2024/01/27 02:43:37;;;;;;;15.17;7.83;;;4.70;99.90;;;;;;5072655;28;20703;-83
2024/01/27 02:46:13;;;;;;;12.87;7.13;;;4.80;99.90;;;;;;5072648;28;20172;-84
2024/01/27 02:48:42;;;;;;;17.30;7.97;;;4.60;99.90;;;;;;5072491;28;20176;-83
2024/01/27 02:51:08;;;;;;;14.57;7.47;;;4.90;99.90;;;;;;5072866;28;20183;-84
2024/01/27 02:53:34;;;;;;;15.40;7.80;;;4.70;99.90;;;;;;5072730;28;20210;-84
2024/01/27 02:56:00;;;;;;;12.10;6.97;;;4.50;99.90;;;;;;5072579;28;20172;-84
2024/01/27 02:58:26;;;;;;;24.83;7.60;;;4.30;99.90;;;;;;5072275;28;20192;-83
2024/01/27 03:00:51;;;;;;;14.97;6.93;;;4.30;99.90;;;;;;5072331;28;20179;-83
2024/01/27 03:03:20;;;;;;;16.17;7.33;;;4.30;99.90;;;;;;5072578;28;20196;-83
2024/01/27 03:05:45;;;;;;;17.97;7.67;;;4.30;99.90;;;;;;5072603;28;20172;-84
2024/01/27 03:08:11;;;;;;;16.50;7.67;;;4.40;99.90;;;;;;5072159;28;20225;-84
2024/01/27 03:10:37;;;;;;;16.30;8.17;;;4.40;99.90;;;;;;5072514;28;20648;-85
2024/01/27 03:13:03;;;;;;;14.70;7.70;;;4.40;99.90;;;;;;5072191;28;20783;-85
2024/01/27 03:15:28;;;;;;;13.50;7.20;;;4.30;99.90;;;;;;5072810;28;20210;-83
2024/01/27 03:17:54;;;;;;;19.77;7.90;;;4.30;99.90;;;;;;5072351;28;20588;-84
2024/01/27 03:20:20;;;;;;;12.67;7.57;;;4.40;99.90;;;;;;5073097;28;20559;-84
2024/01/27 03:22:45;;;;;;;18.50;7.90;;;4.30;99.90;;;;;;5073108;28;20200;-83
2024/01/27 03:25:12;;;;;;;15.80;7.57;;;4.50;99.90;;;;;;5072943;28;20659;-84
2024/01/27 03:27:37;;;;;;;15.87;7.77;;;4.50;99.90;;;;;;5073238;28;20172;-84
2024/01/27 03:30:04;;;;;;;15.73;8.40;;;4.40;99.90;;;;;;5077231;28;20172;-83
2024/01/27 03:32:33;;;;;;;14.57;7.90;;;4.40;99.90;;;;;;5088464;28;20215;-82
2024/01/27 03:35:02;;;;;;;16.43;7.27;;;4.30;99.90;;;;;;5076139;28;20517;-84
2024/01/27 03:37:28;;;;;;;13.10;6.87;;;4.40;99.90;;;;;;5072123;28;20263;-83
2024/01/27 03:39:54;;;;;;;12.97;7.40;;;4.30;99.90;;;;;;5072269;28;20251;-83
2024/01/27 03:42:19;;;;;;;18.07;7.60;;;4.20;99.90;;;;;;5071941;28;20168;-85
2024/01/27 03:44:45;;;;;;;13.97;7.37;;;4.20;99.90;;;;;;5072975;28;20238;-84
2024/01/27 03:47:11;;;;;;;13.03;7.40;;;4.30;99.90;;;;;;5073649;28;20183;-85
2024/01/27 03:49:36;;;;;;;14.83;7.83;;;4.20;99.90;;;;;;5075430;28;20176;-84
2024/01/27 03:52:02;;;;;;;14.47;7.00;;;4.30;99.90;;;;;;5081851;28;20207;-81
2024/01/27 03:54:28;;;;;;;15.93;7.70;;;4.30;99.90;;;;;;5082352;28;20212;-85
2024/01/27 03:56:54;;;;;;;16.00;7.80;;;4.40;99.90;;;;;;5072064;28;20329;-84
2024/01/27 03:59:20;;;;;;;15.67;8.43;;;4.40;99.90;;;;;;5071569;28;20188;-84
2024/01/27 04:01:46;;;;;;;19.37;8.23;;;4.40;99.90;;;;;;5071785;28;20195;-84
2024/01/27 04:04:13;;;;;;;15.90;7.80;;;4.30;99.90;;;;;;5072014;28;20172;-84
2024/01/27 04:06:40;;;;;;;14.07;6.90;;;4.50;99.90;;;;;;5071841;28;20172;-84
2024/01/27 04:09:08;;;;;;;14.80;7.30;;;4.30;99.90;;;;;;5071547;28;20191;-84
2024/01/27 04:11:36;;;;;;;17.10;7.13;;;4.20;99.90;;;;;;5071848;28;20771;-87
2024/01/27 04:14:02;;;;;;;15.33;6.97;;;4.20;99.90;;;;;;5071830;28;20180;-84
2024/01/27 04:16:27;;;;;;;18.33;7.67;;;4.10;99.90;;;;;;5071689;28;20552;-85
2024/01/27 04:18:53;;;;;;;18.73;7.70;;;4.10;99.90;;;;;;5072392;28;20186;-85
2024/01/27 04:21:19;;;;;;;12.73;7.37;;;4.10;99.90;;;;;;5077021;28;20172;-84
2024/01/27 04:23:44;;;;;;;16.53;7.33;;;4.10;99.90;;;;;;5075298;28;20184;-83
2024/01/27 04:26:10;;;;;;;17.07;7.67;;;4.20;99.90;;;;;;5076823;28;20169;-85
2024/01/27 04:28:36;;;;;;;16.10;7.60;;;4.50;99.90;;;;;;5074900;28;20227;-84
2024/01/27 04:31:02;;;;;;;16.70;7.87;;;4.50;99.90;;;;;;5075767;28;20290;-83
2024/01/27 04:33:28;;;;;;;13.93;7.57;;;4.40;99.90;;;;;;5075458;28;20196;-85
2024/01/27 04:35:53;;;;;;;13.93;7.43;;;4.30;99.90;;;;;;5075683;28;20175;-85
2024/01/27 04:38:19;;;;;;;19.50;8.10;;;4.20;99.90;;;;;;5075177;28;20187;-83
2024/01/27 04:40:45;;;;;;;16.73;8.13;;;4.40;99.90;;;;;;5075196;28;20245;-86
2024/01/27 04:43:18;;;;;;;19.53;8.40;;;4.20;99.90;;;;;;5075042;28;20262;-86
2024/01/27 04:45:44;;;;;;;18.00;8.50;;;4.10;99.90;;;;;;5075202;28;20264;-86
2024/01/27 04:48:10;;;;;;;15.17;7.77;;;4.00;99.90;;;;;;5074809;28;20572;-85
2024/01/27 04:50:36;;;;;;;15.37;7.60;;;4.10;99.90;;;;;;5075094;28;20223;-84
2024/01/27 04:53:01;;;;;;;19.33;7.57;;;4.00;99.90;;;;;;5074881;28;20636;-84
2024/01/27 04:55:27;;;;;;;18.30;8.30;;;4.00;99.90;;;;;;5074719;28;20173;-84
2024/01/27 04:57:53;;;;;;;18.40;8.33;;;4.00;99.90;;;;;;5074583;28;20237;-83
2024/01/27 05:00:19;;;;;;;15.47;7.53;;;4.00;99.90;;;;;;5075019;28;20579;-87
2024/01/27 05:02:45;;;;;;;14.70;8.37;;;4.00;99.90;;;;;;5074634;28;20192;-83
2024/01/27 05:05:11;;;;;;;14.97;7.20;;;4.10;99.90;;;;;;5084321;28;20160;-83
2024/01/27 05:07:38;;;;;;;13.80;7.30;;;4.00;99.90;;;;;;5087373;28;20261;-84
2024/01/27 05:10:04;;;;;;;13.67;7.27;;;3.90;99.90;;;;;;5084396;28;20179;-83
2024/01/27 05:12:30;;;;;;;16.30;7.50;;;3.90;99.90;;;;;;5086645;28;20222;-85
2024/01/27 05:14:55;;;;;;;16.90;7.50;;;3.90;99.90;;;;;;5087760;28;20200;-84
2024/01/27 05:17:22;;;;;;;18.53;8.17;;;4.00;99.90;;;;;;5085632;28;20573;-83
2024/01/27 05:19:49;;;;;;;17.20;7.23;;;4.00;99.90;;;;;;5081379;28;20211;-84
2024/01/27 05:22:15;;;;;;;17.10;8.10;;;4.00;99.90;;;;;;5074545;28;20199;-83
2024/01/27 05:24:41;;;;;;;13.87;7.50;;;4.10;99.90;;;;;;5074127;28;20628;-84
2024/01/27 05:27:06;;;;;;;16.57;7.67;;;3.90;99.90;;;;;;5078736;28;20176;-85
2024/01/27 05:29:33;;;;;;;18.27;7.73;;;3.90;99.90;;;;;;5088657;28;20180;-84
2024/01/27 05:31:59;;;;;;;14.70;7.83;;;4.10;99.90;;;;;;5077654;28;20216;-83
2024/01/27 05:34:24;;;;;;;20.43;9.10;;;4.10;99.90;;;;;;5074072;28;20179;-84
2024/01/27 05:36:50;;;;;;;22.03;7.67;;;4.10;99.90;;;;;;5073865;28;20239;-85
2024/01/27 05:39:15;;;;;;;18.77;8.13;;;4.20;99.90;;;;;;5074294;28;20195;-85
2024/01/27 05:41:41;;;;;;;17.23;8.10;;;4.20;99.90;;;;;;5074360;28;20176;-84
2024/01/27 05:44:07;;;;;;;14.43;7.80;;;4.10;99.90;;;;;;5074649;28;20168;-84
2024/01/27 05:46:32;;;;;;;16.77;7.67;;;4.20;99.90;;;;;;5074349;28;20172;-84
2024/01/27 05:49:02;;;;;;;14.80;7.87;;;4.30;99.90;;;;;;5073935;28;20536;-84
2024/01/27 05:51:29;;;;;;;19.77;8.27;;;4.60;99.90;;;;;;5073875;28;20227;-85
2024/01/27 05:53:55;;;;;;;17.50;8.17;;;4.50;99.90;;;;;;5073975;28;20183;-84
2024/01/27 05:56:20;;;;;;;14.37;7.17;;;4.40;99.90;;;;;;5074830;28;20164;-84
2024/01/27 05:58:46;;;;;;;17.33;6.80;;;4.30;99.90;;;;;;5074586;28;20241;-84
2024/01/27 06:01:12;;;;;;;14.07;7.23;;;4.30;99.90;;;;;;5073703;28;20191;-84
2024/01/27 06:03:42;;;;;;;13.27;7.17;;;4.10;99.90;;;;;;5074005;28;20196;-84
2024/01/27 06:06:07;;;;;;;13.33;7.00;;;3.90;99.90;;;;;;5073347;28;20191;-84
2024/01/27 06:08:33;;;;;;;18.23;6.90;;;4.10;99.90;;;;;;5073540;28;20624;-84
2024/01/27 06:10:59;;;;;;;18.37;6.37;;;4.00;99.90;;;;;;5074986;28;20164;-84
2024/01/27 06:13:25;;;;;;;14.40;6.77;;;3.90;99.90;;;;;;5074376;28;20315;-85
2024/01/27 06:15:50;;;;;;;19.80;7.23;;;3.80;99.90;;;;;;5074699;28;20610;-85
2024/01/27 06:18:16;;;;;;;17.40;7.43;;;3.90;99.90;;;;;;5087191;28;20176;-85
2024/01/27 06:20:43;;;;;;;15.97;6.97;;;4.00;99.90;;;;;;5090092;28;20172;-82
2024/01/27 06:23:09;;;;;;;17.47;7.67;;;4.00;99.90;;;;;;5083916;28;20172;-84
2024/01/27 06:25:34;;;;;;;16.13;7.50;;;3.90;99.90;;;;;;5073804;28;20165;-83
2024/01/27 06:28:00;;;;;;;17.63;7.50;;;3.90;99.90;;;;;;5073077;28;20615;-83
2024/01/27 06:30:28;;;;;;;15.27;7.67;;;4.00;99.90;;;;;;5072839;28;20175;-84
2024/01/27 06:32:53;;;;;;;13.73;7.10;;;4.10;99.90;;;;;;5072613;28;20235;-83
2024/01/27 06:35:19;;;;;;;21.13;7.47;;;4.00;99.90;;;;;;5073054;28;20914;-83
2024/01/27 06:37:45;;;;;;;15.60;8.10;;;4.00;99.90;;;;;;5072778;28;20175;-84
2024/01/27 06:40:11;;;;;;;12.77;7.03;;;4.00;99.90;;;;;;5072370;28;20664;-84
2024/01/27 06:42:37;;;;;;;16.80;7.70;;;3.90;99.90;;;;;;5071853;28;20210;-84
2024/01/27 06:45:03;;;;;;;16.03;7.00;;;3.80;99.90;;;;;;5072783;28;20204;-83
2024/01/27 06:47:29;;;;;;;23.60;8.43;;;3.90;99.90;;;;;;5072567;28;20251;-84
2024/01/27 06:49:55;;;;;;;14.70;8.27;;;3.90;99.90;;;;;;5072740;28;20271;-85
2024/01/27 06:52:21;;;;;;;18.00;7.87;;;3.90;99.90;;;;;;5072432;28;20570;-85
2024/01/27 06:54:46;;;;;;;15.83;6.60;;;4.00;99.90;;;;;;5072622;28;20164;-83
2024/01/27 06:57:20;;;;;;;15.80;7.57;;;3.90;99.90;;;;;;5077558;28;20183;-85
2024/01/27 06:59:53;;;;;;;14.00;7.73;;;3.90;99.90;;;;;;5075234;28;20180;-84
2024/01/27 07:02:28;;;;;;;15.67;7.67;;;4.00;99.90;;;;;;5072760;28;20214;-84
2024/01/27 07:04:55;;;;;;;19.60;8.17;;;3.80;99.90;;;;;;5072313;28;20542;-85
2024/01/27 07:07:25;;;;;;;16.63;7.97;;;3.60;99.90;;;;;;5072046;28;20538;-84
2024/01/27 07:09:52;;;;;;;20.57;8.37;;;3.60;99.90;;;;;;5071967;28;20257;-83
2024/01/27 07:12:17;;;;;;;22.17;7.93;;;3.50;99.90;;;;;;5072319;28;20235;-84
2024/01/27 07:14:43;;;;;;;19.13;8.17;;;3.90;99.90;;;;;;5072160;28;20632;-85
2024/01/27 07:17:09;;;;;;;16.07;8.23;;;3.80;99.90;;;;;;5072160;28;20656;-85
2024/01/27 07:19:34;;;;;;;16.97;7.67;;;3.90;99.90;;;;;;5073514;28;20175;-84
2024/01/27 07:22:00;;;;;;;18.87;8.60;;;3.80;99.90;;;;;;5072131;28;20176;-86
2024/01/27 07:24:26;;;;;;;17.23;8.27;;;3.70;99.90;;;;;;5071661;28;20182;-84
2024/01/27 07:26:52;;;;;;;14.87;7.97;;;3.70;99.90;;;;;;5071745;28;20601;-84
2024/01/27 07:29:18;;;;;;;18.90;8.43;;;3.60;99.90;;;;;;5071971;28;20211;-86
2024/01/27 07:31:43;;;;;;;22.50;8.90;;;3.70;99.90;;;;;;5072486;28;20208;-82
2024/01/27 07:34:09;;;;;;;19.43;8.50;;;3.80;99.90;;;;;;5091597;28;20616;-84
2024/01/27 07:36:35;;;;;;;16.73;8.30;;;3.80;99.90;;;;;;5072073;28;20175;-85
2024/01/27 07:39:00;;;;;;;18.60;8.17;;;3.70;99.90;;;;;;5072339;28;20184;-83
2024/01/27 07:41:26;;;;;;;19.00;7.70;;;3.80;99.90;;;;;;5071972;28;20172;-83
2024/01/27 07:43:54;;;;;;;16.60;8.57;;;3.90;99.90;;;;;;5071980;28;20636;-84
2024/01/27 07:46:22;;;;;;;15.40;8.07;;;4.00;99.90;;;;;;5071893;28;20221;-84
2024/01/27 07:48:48;;;;;;;19.87;8.43;;;4.00;99.90;;;;;;5071520;28;20200;-84
2024/01/27 07:51:15;;;;;;;16.70;7.87;;;3.90;99.90;;;;;;5071747;28;20179;-84
2024/01/27 07:53:41;;;;;;;14.60;7.90;;;3.80;99.90;;;;;;5072049;28;20206;-85
2024/01/27 07:56:07;;;;;;;20.20;8.83;;;3.90;99.90;;;;;;5072060;28;20266;-84
2024/01/27 07:58:33;;;;;;;16.27;8.70;;;3.90;99.90;;;;;;5071373;28;20214;-84
2024/01/27 08:01:00;;;;;;;15.20;8.10;;;4.00;99.90;;;;;;5071597;28;20188;-84
2024/01/27 08:03:25;;;;;;;17.53;8.17;;;4.00;99.90;;;;;;5071686;28;20636;-84
2024/01/27 08:05:51;;;;;;;14.27;7.53;;;4.00;99.90;;;;;;5071218;28;20202;-84
2024/01/27 08:08:17;;;;;;;20.33;7.90;;;4.10;99.90;;;;;;5071285;28;20176;-84
2024/01/27 08:10:42;;;;;;;15.70;7.60;;;4.10;99.90;;;;;;5071727;28;20176;-84
2024/01/27 08:13:08;;;;;;;19.00;8.60;;;4.20;99.90;;;;;;5071272;28;20584;-84
2024/01/27 08:15:34;;;;;;;18.50;8.00;;;4.40;99.90;;;;;;5071377;28;20547;-84
2024/01/27 08:17:59;;;;;;;23.50;8.97;;;4.50;99.90;;;;;;5071082;28;20194;-86
2024/01/27 08:20:25;;;;;;;14.63;8.03;;;4.60;99.90;;;;;;5070958;28;20204;-85
2024/01/27 08:22:51;;;;;;;20.20;7.70;;;4.80;99.90;;;;;;5070721;28;20223;-85
2024/01/27 08:25:18;;;;;;;18.10;7.83;;;5.00;99.90;;;;;;5071171;28;20180;-84
2024/01/27 08:27:43;;;;;;;14.33;6.57;;;4.90;99.90;;;;;;5070978;28;20183;-84
2024/01/27 08:30:10;;;;;;;17.20;7.10;;;4.90;99.90;;;;;;5071570;28;20181;-85
2024/01/27 08:32:35;;;;;;;16.53;7.30;;;4.80;99.90;;;;;;5071131;28;20227;-85
2024/01/27 08:35:01;;;;;;;17.73;7.70;;;4.60;99.90;;;;;;5070911;28;20177;-84
2024/01/27 08:37:27;;;;;;;14.30;7.80;;;4.60;99.90;;;;;;5070939;28;20281;-85
2024/01/27 08:39:53;;;;;;;16.87;7.73;;;4.60;99.90;;;;;;5071317;28;20177;-86
2024/01/27 08:42:19;;;;;;;15.50;7.90;;;4.70;99.90;;;;;;5071079;28;20645;-84
2024/01/27 08:44:44;;;;;;;14.83;8.37;;;4.70;99.90;;;;;;5071266;28;20257;-83
2024/01/27 08:47:10;;;;;;;21.43;7.17;;;4.70;99.90;;;;;;5071092;28;20338;-83
2024/01/27 08:49:36;;;;;;;16.17;8.03;;;4.70;99.90;;;;;;5070660;28;20181;-84
2024/01/27 08:52:01;;;;;;;18.90;8.43;;;4.80;99.90;;;;;;5071252;28;20745;-85
2024/01/27 08:54:27;;;;;;;21.10;9.13;;;4.90;99.90;;;;;;5070869;28;20172;-86
2024/01/27 08:56:53;;;;;;;24.30;9.53;;;5.00;99.90;;;;;;5070598;28;20263;-83
2024/01/27 08:59:18;;;;;;;21.30;8.50;;;5.10;99.90;;;;;;5070388;28;20214;-85
2024/01/27 09:01:44;;;;;;;17.60;8.47;;;5.30;99.90;;;;;;5070565;28;20612;-85
2024/01/27 09:04:10;;;;;;;19.30;8.90;;;5.40;99.90;;;;;;5070412;28;20624;-84
2024/01/27 09:06:36;;;;;;;18.67;8.87;;;5.40;99.90;;;;;;5073851;28;20202;-84
2024/01/27 09:09:02;;;;;;;16.47;7.67;;;5.30;99.90;;;;;;5074113;28;20178;-85
2024/01/27 09:11:30;;;;;;;27.90;9.03;;;5.40;99.90;;;;;;5074208;28;20335;-85
2024/01/27 09:13:56;;;;;;;15.97;8.10;;;5.40;99.90;;;;;;5074429;28;20188;-85
2024/01/27 09:16:22;;;;;;;17.60;7.73;;;5.60;99.90;;;;;;5074760;28;20268;-85
2024/01/27 09:18:50;;;;;;;18.70;7.70;;;5.50;99.90;;;;;;5073985;28;20834;-84
2024/01/27 09:21:20;;;;;;;17.10;8.13;;;5.60;99.90;;;;;;5075837;28;20248;-84
2024/01/27 09:23:47;;;;;;;20.23;7.80;;;5.50;99.90;;;;;;5084008;28;20184;-84
2024/01/27 09:26:13;;;;;;;21.00;8.10;;;5.50;99.90;;;;;;5079116;28;20640;-84
2024/01/27 09:28:43;;;;;;;19.53;7.67;;;5.90;99.90;;;;;;5083061;28;20180;-85
2024/01/27 09:31:10;;;;;;;16.77;7.53;;;5.80;99.90;;;;;;5074824;28;20172;-84
2024/01/27 09:33:36;;;;;;;19.20;7.27;;;6.00;99.90;;;;;;5074025;28;20252;-86
2024/01/27 09:36:02;;;;;;;18.80;7.70;;;5.90;99.90;;;;;;5073716;28;20258;-84
2024/01/27 09:38:28;;;;;;;18.97;7.60;;;6.10;99.90;;;;;;5073547;28;20181;-85
2024/01/27 09:40:55;;;;;;;14.10;7.23;;;6.10;99.90;;;;;;5073547;28;20226;-85
2024/01/27 09:43:21;;;;;;;18.23;8.17;;;6.00;99.90;;;;;;5073621;28;20172;-86
2024/01/27 09:45:47;;;;;;;17.30;7.60;;;6.00;99.90;;;;;;5073926;28;20252;-84
2024/01/27 09:48:13;;;;;;;18.27;7.50;;;6.10;99.90;;;;;;5074776;28;20599;-86
2024/01/27 09:50:45;;;;;;;17.87;8.13;;;6.30;99.90;;;;;;5073487;28;20173;-84
2024/01/27 09:53:11;;;;;;;18.30;7.67;;;6.40;99.90;;;;;;5072991;28;20212;-85
2024/01/27 09:55:37;;;;;;;15.90;8.03;;;6.40;99.90;;;;;;5073171;28;20199;-85
2024/01/27 09:58:04;;;;;;;19.53;7.93;;;6.60;99.90;;;;;;5072539;28;20172;-85
2024/01/27 10:00:30;;;;;;;18.10;8.03;;;6.60;99.90;;;;;;5072708;28;20203;-83
2024/01/27 10:02:57;;;;;;;15.83;8.40;;;6.80;99.90;;;;;;5074492;28;20640;-84
2024/01/27 10:05:24;;;;;;;18.90;8.43;;;6.60;99.90;;;;;;5072597;28;20172;-84
2024/01/27 10:07:51;;;;;;;17.60;7.63;;;6.60;99.90;;;;;;5072480;28;20168;-85
2024/01/27 10:10:17;;;;;;;20.13;8.60;;;6.50;99.90;;;;;;5073386;28;20182;-85
2024/01/27 10:12:44;;;;;;;20.60;8.17;;;6.50;99.90;;;;;;5072807;28;20222;-85
2024/01/27 10:15:20;;;;;;;22.50;8.77;;;6.80;99.90;;;;;;5072757;28;20256;-84
2024/01/27 10:17:46;;;;;;;15.27;8.30;;;7.00;99.90;;;;;;5072914;28;20174;-86
2024/01/27 10:20:15;;;;;;;15.80;8.17;;;7.10;99.90;;;;;;5072415;28;20263;-85
2024/01/27 10:22:41;;;;;;;18.47;8.00;;;7.20;99.90;;;;;;5072583;28;20671;-86
2024/01/27 10:25:08;;;;;;;18.23;9.30;;;7.30;99.90;;;;;;5072454;28;20287;-85
2024/01/27 10:27:34;;;;;;;19.30;9.60;;;7.40;99.90;;;;;;5072250;28;20636;-84
2024/01/27 10:30:00;;;;;;;19.03;8.83;;;7.70;99.90;;;;;;5072143;28;20172;-85
2024/01/27 10:32:26;;;;;;;17.10;9.50;;;7.70;99.90;;;;;;5071922;28;20664;-85
2024/01/27 10:35:05;;;;;;;21.87;8.90;;;7.60;99.90;;;;;;5072476;28;20230;-85
2024/01/27 10:37:31;;;;;;;23.73;9.37;;;7.60;99.90;;;;;;5071276;28;20199;-86
2024/01/27 10:40:04;;;;;;;20.77;9.33;;;7.70;99.90;;;;;;5072248;28;20215;-85
2024/01/27 10:42:31;;;;;;;19.10;8.63;;;7.70;99.90;;;;;;5071784;28;20181;-85
2024/01/27 10:45:02;;;;;;;19.80;9.37;;;7.80;99.90;;;;;;5073462;28;20303;-85
2024/01/27 10:47:29;;;;;;;19.97;8.30;;;7.70;99.90;;;;;;5071882;28;20172;-84
2024/01/27 10:49:57;;;;;;;20.27;8.93;;;7.80;99.90;;;;;;5071982;28;20199;-84
2024/01/27 10:52:28;;;;;;;20.20;7.90;;;7.90;99.90;;;;;;5071518;28;20232;-84
2024/01/27 10:55:01;;;;;;;17.50;7.20;;;7.80;99.90;;;;;;5071553;28;20259;-84
2024/01/27 10:57:28;;;;;;;20.57;6.80;;;7.80;99.90;;;;;;5071225;28;20168;-85
2024/01/27 10:59:56;;;;;;;18.27;7.07;;;8.00;99.90;;;;;;5071649;28;20677;-85
2024/01/27 11:02:22;;;;;;;11.80;5.37;;;7.90;99.90;;;;;;5071725;28;20207;-85
2024/01/27 11:04:49;;;;;;;14.97;6.40;;;8.00;99.90;;;;;;5073385;28;20708;-86
2024/01/27 11:07:16;;;;;;;12.43;5.97;;;8.10;99.90;;;;;;5071486;28;20180;-84
2024/01/27 11:09:43;;;;;;;12.33;5.43;;;8.20;99.90;;;;;;5071965;28;20176;-84
2024/01/27 11:12:09;;;;;;;15.73;6.63;;;8.40;99.90;;;;;;5072380;28;20204;-86
2024/01/27 11:14:35;;;;;;;14.40;5.93;;;8.40;99.90;;;;;;5074048;28;20232;-84
2024/01/27 11:17:02;;;;;;;16.27;6.53;;;8.50;99.90;;;;;;5072923;28;20671;-85
2024/01/27 11:19:27;;;;;;;16.30;6.80;;;8.60;99.90;;;;;;5073957;28;20206;-86
2024/01/27 11:22:03;;;;;;;15.43;6.80;;;8.60;99.90;;;;;;5076124;28;20226;-84
2024/01/27 11:24:29;;;;;;;19.83;6.73;;;8.70;99.90;;;;;;5073248;28;20517;-87
2024/01/27 11:27:01;;;;;;;13.40;6.33;;;8.70;99.90;;;;;;5072003;28;20640;-87
2024/01/27 11:29:29;;;;;;;14.97;6.63;;;8.90;99.90;;;;;;5071079;28;20184;-86
2024/01/27 11:31:55;;;;;;;17.37;7.03;;;8.90;99.90;;;;;;5071488;28;20212;-88
2024/01/27 11:34:21;;;;;;;13.20;6.50;;;8.80;99.90;;;;;;5071219;28;20263;-86
2024/01/27 11:36:48;;;;;;;10.90;5.43;;;8.70;99.90;;;;;;5071342;28;20275;-86
2024/01/27 11:39:43;;;;;;;16.17;6.60;;;8.70;99.90;;;;;;5072466;28;20184;-85
2024/01/27 11:42:13;;;;;;;13.53;6.63;;;8.80;99.90;;;;;;5053930;28;20180;-85
2024/01/27 11:44:40;;;;;;;12.73;6.23;;;8.70;99.90;;;;;;5071442;28;20164;-87
2024/01/27 11:47:15;;;;;;;13.20;5.80;;;8.70;99.90;;;;;;5071263;28;20182;-85
2024/01/27 11:49:42;;;;;;;14.57;6.23;;;8.80;99.90;;;;;;5071646;28;20195;-84
2024/01/27 11:52:07;;;;;;;16.40;6.70;;;8.60;99.90;;;;;;5071371;28;20699;-84
2024/01/27 11:54:33;;;;;;;11.43;6.17;;;8.70;99.90;;;;;;5072034;28;20176;-85
2024/01/27 11:56:59;;;;;;;15.73;6.43;;;8.60;99.90;;;;;;5071409;28;20187;-84
2024/01/27 11:59:24;;;;;;;13.17;5.50;;;8.60;99.90;;;;;;5071097;28;20301;-87
2024/01/27 12:01:50;;;;;;;14.70;6.03;;;8.60;99.90;;;;;;5071046;28;20188;-86
2024/01/27 12:04:16;;;;;;;14.33;6.43;;;8.70;99.90;;;;;;5071228;28;20180;-86
2024/01/27 12:06:44;;;;;;;17.93;7.20;;;8.80;99.90;;;;;;5071298;28;20193;-84
2024/01/27 12:09:11;;;;;;;13.97;6.07;;;8.90;99.90;;;;;;5070715;28;20636;-84
2024/01/27 12:11:41;;;;;;;13.20;6.10;;;9.00;99.90;;;;;;5071127;28;20315;-85
2024/01/27 12:14:07;;;;;;;14.00;6.13;;;9.10;99.90;;;;;;5070332;28;20186;-84
2024/01/27 12:16:33;;;;;;;13.23;5.73;;;9.10;99.90;;;;;;5073082;28;20187;-84
2024/01/27 12:18:59;;;;;;;14.80;6.07;;;9.30;99.90;;;;;;5071244;28;20589;-84
2024/01/27 12:21:25;;;;;;;13.37;5.67;;;9.40;99.90;;;;;;5071246;28;20692;-85
2024/01/27 12:23:56;;;;;;;14.00;5.43;;;9.50;99.90;;;;;;5071100;28;20210;-85
2024/01/27 12:26:24;;;;;;;13.20;5.50;;;9.60;99.90;;;;;;5071160;28;20172;-85
2024/01/27 12:28:50;;;;;;;13.93;5.70;;;9.50;99.90;;;;;;5070400;28;20191;-84
2024/01/27 12:31:18;;;;;;;14.37;6.10;;;9.40;99.90;;;;;;5071006;28;20267;-84
2024/01/27 12:33:52;;;;;;;12.60;5.60;;;9.60;99.90;;;;;;5070710;28;20553;-84
2024/01/27 12:36:20;;;;;;;15.33;5.90;;;9.60;99.90;;;;;;5070052;28;20539;-84
2024/01/27 12:39:05;;;;;;;11.73;5.53;;;9.70;99.90;;;;;;5071980;28;20160;-84
2024/01/27 12:41:33;;;;;;;10.53;5.40;;;9.60;99.90;;;;;;5073926;28;20632;-85
2024/01/27 12:43:59;;;;;;;11.50;5.37;;;9.90;99.90;;;;;;5074736;28;20169;-85